Terminal Aerodrome Forecast
Issued by NWS Miami, FL

Home | Current Version | Previous Version | Text Only | Print | Product List | Glossary On
Versions: 1 2 3 4 5 6 7 8 9 10 11 12 13 14 15 16 17 18 19 20 21 22 23 24 25 26 27 28 29 30 31 32 33 34 35 36 37 38 39 40 41 42 43 44
541
FTUS42 KMFL 070742 AAA
TAFPBI
TAF AMD
KPBI 070742Z 0708/0806 28015KT P6SM VCSH SCT012 BKN070 OVC090
      TEMPO 0708/0710 5SM RA BKN012 OVC020
     FM071000 29013G22KT P6SM SCT020 BKN080
     FM071500 30020G30KT P6SM BKN250
     FM072200 29013KT P6SM SCT250=

USA.gov is the U.S. government's official web portal to all federal, state and local government web resources and services.